sensor_id;sensor_type;location;lat;lon;timestamp;P1;durP1;ratioP1;P2;durP2;ratioP2
12792;SDS011;6460;42.684;23.260;2022-10-17T00:02:18;10.57;;;7.83;;
12792;SDS011;6460;42.684;23.260;2022-10-17T00:04:56;10.97;;;8.17;;
12792;SDS011;6460;42.684;23.260;2022-10-17T00:07:29;10.37;;;8.10;;
12792;SDS011;6460;42.684;23.260;2022-10-17T00:09:58;9.60;;;7.50;;
12792;SDS011;6460;42.684;23.260;2022-10-17T00:12:25;10.07;;;8.37;;
12792;SDS011;6460;42.684;23.260;2022-10-17T00:14:56;11.07;;;8.87;;
12792;SDS011;6460;42.684;23.260;2022-10-17T00:17:24;10.13;;;8.73;;
12792;SDS011;6460;42.684;23.260;2022-10-17T00:19:55;10.83;;;7.80;;
12792;SDS011;6460;42.684;23.260;2022-10-17T00:22:25;8.57;;;7.47;;
12792;SDS011;6460;42.684;23.260;2022-10-17T00:24:58;10.67;;;8.40;;
12792;SDS011;6460;42.684;23.260;2022-10-17T00:27:33;11.47;;;8.57;;
12792;SDS011;6460;42.684;23.260;2022-10-17T00:30:34;12.70;;;8.80;;
12792;SDS011;6460;42.684;23.260;2022-10-17T00:33:06;13.13;;;8.50;;
12792;SDS011;6460;42.684;23.260;2022-10-17T00:35:47;9.30;;;7.97;;
12792;SDS011;6460;42.684;23.260;2022-10-17T00:38:15;10.93;;;9.13;;
12792;SDS011;6460;42.684;23.260;2022-10-17T00:40:50;11.63;;;8.50;;
12792;SDS011;6460;42.684;23.260;2022-10-17T00:43:17;10.73;;;8.43;;
12792;SDS011;6460;42.684;23.260;2022-10-17T00:48:33;10.77;;;8.40;;
12792;SDS011;6460;42.684;23.260;2022-10-17T00:51:04;12.07;;;8.03;;
12792;SDS011;6460;42.684;23.260;2022-10-17T00:53:34;11.73;;;8.90;;
12792;SDS011;6460;42.684;23.260;2022-10-17T00:56:17;13.70;;;9.03;;
12792;SDS011;6460;42.684;23.260;2022-10-17T00:58:45;11.53;;;8.37;;
12792;SDS011;6460;42.684;23.260;2022-10-17T01:01:16;10.33;;;8.30;;
12792;SDS011;6460;42.684;23.260;2022-10-17T01:03:48;9.83;;;7.90;;
12792;SDS011;6460;42.684;23.260;2022-10-17T01:06:16;9.83;;;8.53;;
12792;SDS011;6460;42.684;23.260;2022-10-17T01:08:54;10.33;;;7.97;;
12792;SDS011;6460;42.684;23.260;2022-10-17T01:11:26;11.93;;;7.60;;
12792;SDS011;6460;42.684;23.260;2022-10-17T01:14:08;9.67;;;7.67;;
12792;SDS011;6460;42.684;23.260;2022-10-17T01:16:57;8.93;;;7.87;;
12792;SDS011;6460;42.684;23.260;2022-10-17T01:19:37;10.00;;;7.77;;
12792;SDS011;6460;42.684;23.260;2022-10-17T01:22:22;8.53;;;7.30;;
12792;SDS011;6460;42.684;23.260;2022-10-17T01:24:57;8.97;;;8.07;;
12792;SDS011;6460;42.684;23.260;2022-10-17T01:27:48;9.27;;;7.73;;
12792;SDS011;6460;42.684;23.260;2022-10-17T01:30:29;10.00;;;8.10;;
12792;SDS011;6460;42.684;23.260;2022-10-17T01:43:25;16.43;;;9.87;;
12792;SDS011;6460;42.684;23.260;2022-10-17T01:46:32;11.67;;;9.23;;
12792;SDS011;6460;42.684;23.260;2022-10-17T02:02:13;11.10;;;8.90;;
12792;SDS011;6460;42.684;23.260;2022-10-17T02:04:46;12.33;;;9.27;;
12792;SDS011;6460;42.684;23.260;2022-10-17T02:07:16;12.97;;;9.60;;
12792;SDS011;6460;42.684;23.260;2022-10-17T02:09:51;14.20;;;10.17;;
12792;SDS011;6460;42.684;23.260;2022-10-17T02:12:43;11.60;;;9.73;;
12792;SDS011;6460;42.684;23.260;2022-10-17T02:15:25;15.37;;;10.27;;
12792;SDS011;6460;42.684;23.260;2022-10-17T02:18:17;12.20;;;9.90;;
12792;SDS011;6460;42.684;23.260;2022-10-17T02:21:02;14.40;;;9.83;;
12792;SDS011;6460;42.684;23.260;2022-10-17T02:23:41;12.17;;;9.70;;
12792;SDS011;6460;42.684;23.260;2022-10-17T02:26:18;13.40;;;9.73;;
12792;SDS011;6460;42.684;23.260;2022-10-17T02:28:58;14.30;;;10.50;;
12792;SDS011;6460;42.684;23.260;2022-10-17T02:31:44;11.13;;;9.53;;
12792;SDS011;6460;42.684;23.260;2022-10-17T02:37:06;13.97;;;10.63;;
12792;SDS011;6460;42.684;23.260;2022-10-17T02:39:40;13.97;;;10.70;;
12792;SDS011;6460;42.684;23.260;2022-10-17T02:42:16;14.33;;;10.53;;
12792;SDS011;6460;42.684;23.260;2022-10-17T02:44:48;14.77;;;10.80;;
12792;SDS011;6460;42.684;23.260;2022-10-17T02:47:24;18.10;;;11.50;;
12792;SDS011;6460;42.684;23.260;2022-10-17T02:53:07;16.20;;;11.10;;
12792;SDS011;6460;42.684;23.260;2022-10-17T02:55:45;15.20;;;11.97;;
12792;SDS011;6460;42.684;23.260;2022-10-17T02:58:22;12.03;;;10.43;;
12792;SDS011;6460;42.684;23.260;2022-10-17T03:01:13;13.97;;;10.80;;
12792;SDS011;6460;42.684;23.260;2022-10-17T03:03:51;15.77;;;10.37;;
12792;SDS011;6460;42.684;23.260;2022-10-17T03:06:42;13.00;;;10.60;;
12792;SDS011;6460;42.684;23.260;2022-10-17T03:09:16;14.13;;;11.03;;
12792;SDS011;6460;42.684;23.260;2022-10-17T03:11:55;13.70;;;12.03;;
12792;SDS011;6460;42.684;23.260;2022-10-17T03:14:27;23.97;;;17.60;;
12792;SDS011;6460;42.684;23.260;2022-10-17T03:16:56;22.00;;;15.80;;
12792;SDS011;6460;42.684;23.260;2022-10-17T03:19:35;17.50;;;14.30;;
12792;SDS011;6460;42.684;23.260;2022-10-17T03:28:02;19.53;;;14.17;;
12792;SDS011;6460;42.684;23.260;2022-10-17T03:30:30;19.40;;;14.70;;
12792;SDS011;6460;42.684;23.260;2022-10-17T03:33:04;18.20;;;13.23;;
12792;SDS011;6460;42.684;23.260;2022-10-17T03:35:34;16.60;;;13.00;;
12792;SDS011;6460;42.684;23.260;2022-10-17T03:38:14;17.07;;;12.67;;
12792;SDS011;6460;42.684;23.260;2022-10-17T03:41:27;17.17;;;13.03;;
12792;SDS011;6460;42.684;23.260;2022-10-17T03:44:12;17.83;;;13.13;;
12792;SDS011;6460;42.684;23.260;2022-10-17T03:46:59;17.00;;;12.63;;
12792;SDS011;6460;42.684;23.260;2022-10-17T03:49:27;15.40;;;13.30;;
12792;SDS011;6460;42.684;23.260;2022-10-17T03:51:55;16.43;;;12.77;;
12792;SDS011;6460;42.684;23.260;2022-10-17T03:54:24;13.57;;;12.07;;
12792;SDS011;6460;42.684;23.260;2022-10-17T03:57:00;18.90;;;13.40;;
12792;SDS011;6460;42.684;23.260;2022-10-17T03:59:32;20.57;;;13.53;;
12792;SDS011;6460;42.684;23.260;2022-10-17T04:02:10;15.40;;;12.33;;
12792;SDS011;6460;42.684;23.260;2022-10-17T04:04:43;16.37;;;12.77;;
12792;SDS011;6460;42.684;23.260;2022-10-17T04:07:15;22.30;;;13.97;;
12792;SDS011;6460;42.684;23.260;2022-10-17T04:09:45;21.87;;;13.37;;
12792;SDS011;6460;42.684;23.260;2022-10-17T04:15:17;19.10;;;13.73;;
12792;SDS011;6460;42.684;23.260;2022-10-17T04:17:47;19.13;;;13.97;;
12792;SDS011;6460;42.684;23.260;2022-10-17T04:20:24;19.87;;;13.60;;
12792;SDS011;6460;42.684;23.260;2022-10-17T04:22:55;16.43;;;13.43;;
12792;SDS011;6460;42.684;23.260;2022-10-17T04:25:26;18.87;;;13.53;;
12792;SDS011;6460;42.684;23.260;2022-10-17T04:27:59;21.40;;;14.30;;
12792;SDS011;6460;42.684;23.260;2022-10-17T04:30:41;19.37;;;13.87;;
12792;SDS011;6460;42.684;23.260;2022-10-17T04:33:10;22.53;;;13.97;;
12792;SDS011;6460;42.684;23.260;2022-10-17T04:35:53;20.83;;;14.13;;
12792;SDS011;6460;42.684;23.260;2022-10-17T04:38:22;28.70;;;16.47;;
12792;SDS011;6460;42.684;23.260;2022-10-17T04:40:51;28.53;;;17.77;;
12792;SDS011;6460;42.684;23.260;2022-10-17T04:43:18;32.20;;;20.63;;
12792;SDS011;6460;42.684;23.260;2022-10-17T04:46:00;36.90;;;20.10;;
12792;SDS011;6460;42.684;23.260;2022-10-17T04:48:36;26.93;;;16.93;;
12792;SDS011;6460;42.684;23.260;2022-10-17T04:51:09;30.53;;;16.27;;
12792;SDS011;6460;42.684;23.260;2022-10-17T04:53:40;25.80;;;16.67;;
12792;SDS011;6460;42.684;23.260;2022-10-17T04:56:14;21.10;;;13.13;;
12792;SDS011;6460;42.684;23.260;2022-10-17T04:59:08;22.93;;;13.77;;
12792;SDS011;6460;42.684;23.260;2022-10-17T05:01:45;19.20;;;12.60;;
12792;SDS011;6460;42.684;23.260;2022-10-17T05:04:14;22.73;;;13.10;;
12792;SDS011;6460;42.684;23.260;2022-10-17T05:06:44;22.63;;;15.03;;
12792;SDS011;6460;42.684;23.260;2022-10-17T05:09:11;17.57;;;12.73;;
12792;SDS011;6460;42.684;23.260;2022-10-17T05:11:53;16.37;;;11.53;;
12792;SDS011;6460;42.684;23.260;2022-10-17T05:14:22;16.47;;;12.07;;
12792;SDS011;6460;42.684;23.260;2022-10-17T05:16:55;17.73;;;12.60;;
12792;SDS011;6460;42.684;23.260;2022-10-17T05:19:23;22.40;;;12.60;;
12792;SDS011;6460;42.684;23.260;2022-10-17T05:21:53;22.00;;;11.73;;
12792;SDS011;6460;42.684;23.260;2022-10-17T05:24:38;18.93;;;11.20;;
12792;SDS011;6460;42.684;23.260;2022-10-17T05:27:05;32.83;;;13.03;;
12792;SDS011;6460;42.684;23.260;2022-10-17T05:29:33;23.93;;;12.43;;
12792;SDS011;6460;42.684;23.260;2022-10-17T05:32:02;28.33;;;13.43;;
12792;SDS011;6460;42.684;23.260;2022-10-17T05:34:30;18.83;;;12.63;;
12792;SDS011;6460;42.684;23.260;2022-10-17T05:36:58;24.00;;;13.57;;
12792;SDS011;6460;42.684;23.260;2022-10-17T05:39:26;26.27;;;14.17;;
12792;SDS011;6460;42.684;23.260;2022-10-17T05:41:53;25.80;;;13.93;;
12792;SDS011;6460;42.684;23.260;2022-10-17T05:44:26;23.47;;;13.83;;
12792;SDS011;6460;42.684;23.260;2022-10-17T05:46:53;20.17;;;15.33;;
12792;SDS011;6460;42.684;23.260;2022-10-17T05:49:33;22.20;;;14.50;;
12792;SDS011;6460;42.684;23.260;2022-10-17T05:52:00;21.87;;;14.87;;
12792;SDS011;6460;42.684;23.260;2022-10-17T05:54:27;21.73;;;15.80;;
12792;SDS011;6460;42.684;23.260;2022-10-17T05:56:54;60.43;;;44.87;;
12792;SDS011;6460;42.684;23.260;2022-10-17T05:59:23;34.50;;;25.07;;
12792;SDS011;6460;42.684;23.260;2022-10-17T06:01:51;23.37;;;18.57;;
12792;SDS011;6460;42.684;23.260;2022-10-17T06:04:19;20.47;;;16.80;;
12792;SDS011;6460;42.684;23.260;2022-10-17T06:06:48;21.67;;;17.43;;
12792;SDS011;6460;42.684;23.260;2022-10-17T06:09:15;24.83;;;16.30;;
12792;SDS011;6460;42.684;23.260;2022-10-17T06:11:43;22.50;;;16.37;;
12792;SDS011;6460;42.684;23.260;2022-10-17T06:14:10;20.07;;;14.07;;
12792;SDS011;6460;42.684;23.260;2022-10-17T06:16:37;18.10;;;14.53;;
12792;SDS011;6460;42.684;23.260;2022-10-17T06:19:06;18.93;;;13.87;;
12792;SDS011;6460;42.684;23.260;2022-10-17T06:21:35;20.40;;;13.20;;
12792;SDS011;6460;42.684;23.260;2022-10-17T06:24:04;17.80;;;13.57;;
12792;SDS011;6460;42.684;23.260;2022-10-17T06:26:32;18.47;;;13.27;;
12792;SDS011;6460;42.684;23.260;2022-10-17T06:29:01;21.50;;;14.03;;
12792;SDS011;6460;42.684;23.260;2022-10-17T06:31:29;15.83;;;13.43;;
12792;SDS011;6460;42.684;23.260;2022-10-17T06:33:58;16.63;;;13.80;;
12792;SDS011;6460;42.684;23.260;2022-10-17T06:36:25;17.13;;;14.77;;
12792;SDS011;6460;42.684;23.260;2022-10-17T06:38:52;19.53;;;15.03;;
12792;SDS011;6460;42.684;23.260;2022-10-17T06:41:24;21.17;;;17.30;;
12792;SDS011;6460;42.684;23.260;2022-10-17T06:43:54;30.47;;;21.23;;
12792;SDS011;6460;42.684;23.260;2022-10-17T06:46:22;20.93;;;17.57;;
12792;SDS011;6460;42.684;23.260;2022-10-17T06:48:51;21.47;;;18.30;;
12792;SDS011;6460;42.684;23.260;2022-10-17T06:51:21;20.17;;;16.87;;
12792;SDS011;6460;42.684;23.260;2022-10-17T06:53:48;19.73;;;17.03;;
12792;SDS011;6460;42.684;23.260;2022-10-17T06:56:15;18.97;;;16.10;;
12792;SDS011;6460;42.684;23.260;2022-10-17T06:58:46;21.03;;;15.17;;
12792;SDS011;6460;42.684;23.260;2022-10-17T07:01:17;17.87;;;15.77;;
12792;SDS011;6460;42.684;23.260;2022-10-17T07:03:46;18.20;;;15.10;;
12792;SDS011;6460;42.684;23.260;2022-10-17T07:06:14;20.27;;;15.83;;
12792;SDS011;6460;42.684;23.260;2022-10-17T07:08:42;19.93;;;16.00;;
12792;SDS011;6460;42.684;23.260;2022-10-17T07:11:10;19.67;;;17.23;;
12792;SDS011;6460;42.684;23.260;2022-10-17T07:13:38;19.57;;;15.83;;
12792;SDS011;6460;42.684;23.260;2022-10-17T07:16:07;24.60;;;18.33;;
12792;SDS011;6460;42.684;23.260;2022-10-17T07:18:35;22.60;;;17.80;;
12792;SDS011;6460;42.684;23.260;2022-10-17T07:21:03;20.87;;;16.57;;
12792;SDS011;6460;42.684;23.260;2022-10-17T07:23:33;18.57;;;14.07;;
12792;SDS011;6460;42.684;23.260;2022-10-17T07:26:05;17.73;;;14.17;;
12792;SDS011;6460;42.684;23.260;2022-10-17T07:28:34;16.27;;;13.90;;
12792;SDS011;6460;42.684;23.260;2022-10-17T07:31:04;20.80;;;14.70;;
12792;SDS011;6460;42.684;23.260;2022-10-17T07:33:34;16.53;;;14.57;;
12792;SDS011;6460;42.684;23.260;2022-10-17T07:36:02;19.10;;;15.20;;
12792;SDS011;6460;42.684;23.260;2022-10-17T07:38:31;18.37;;;15.00;;
12792;SDS011;6460;42.684;23.260;2022-10-17T07:40:59;22.00;;;15.33;;
12792;SDS011;6460;42.684;23.260;2022-10-17T07:43:27;18.23;;;15.57;;
12792;SDS011;6460;42.684;23.260;2022-10-17T07:57:11;22.77;;;15.20;;
12792;SDS011;6460;42.684;23.260;2022-10-17T07:59:38;22.00;;;16.93;;
12792;SDS011;6460;42.684;23.260;2022-10-17T08:02:06;22.43;;;16.90;;
12792;SDS011;6460;42.684;23.260;2022-10-17T08:04:39;19.93;;;15.60;;
12792;SDS011;6460;42.684;23.260;2022-10-17T08:07:06;24.67;;;18.77;;
12792;SDS011;6460;42.684;23.260;2022-10-17T08:09:34;24.40;;;16.43;;
12792;SDS011;6460;42.684;23.260;2022-10-17T08:12:01;21.37;;;16.80;;
12792;SDS011;6460;42.684;23.260;2022-10-17T08:14:30;22.23;;;15.03;;
12792;SDS011;6460;42.684;23.260;2022-10-17T08:16:57;18.97;;;16.57;;
12792;SDS011;6460;42.684;23.260;2022-10-17T08:19:24;21.60;;;17.03;;
12792;SDS011;6460;42.684;23.260;2022-10-17T08:21:52;23.20;;;16.67;;
12792;SDS011;6460;42.684;23.260;2022-10-17T08:24:19;22.87;;;16.40;;
12792;SDS011;6460;42.684;23.260;2022-10-17T08:26:47;23.00;;;16.77;;
12792;SDS011;6460;42.684;23.260;2022-10-17T08:29:14;25.20;;;16.13;;
12792;SDS011;6460;42.684;23.260;2022-10-17T08:34:19;23.50;;;15.87;;
12792;SDS011;6460;42.684;23.260;2022-10-17T08:36:46;22.23;;;14.23;;
12792;SDS011;6460;42.684;23.260;2022-10-17T08:39:14;16.77;;;14.20;;
12792;SDS011;6460;42.684;23.260;2022-10-17T08:41:44;19.20;;;15.07;;
12792;SDS011;6460;42.684;23.260;2022-10-17T08:44:26;24.80;;;15.87;;
12792;SDS011;6460;42.684;23.260;2022-10-17T08:47:01;18.27;;;14.77;;
12792;SDS011;6460;42.684;23.260;2022-10-17T08:49:35;19.57;;;14.93;;
12792;SDS011;6460;42.684;23.260;2022-10-17T08:52:13;22.70;;;15.60;;
12792;SDS011;6460;42.684;23.260;2022-10-17T08:54:44;23.80;;;16.83;;
12792;SDS011;6460;42.684;23.260;2022-10-17T08:57:14;23.03;;;16.83;;
12792;SDS011;6460;42.684;23.260;2022-10-17T08:59:42;21.13;;;17.60;;
12792;SDS011;6460;42.684;23.260;2022-10-17T09:02:16;22.00;;;17.20;;
12792;SDS011;6460;42.684;23.260;2022-10-17T09:04:59;24.03;;;17.53;;
12792;SDS011;6460;42.684;23.260;2022-10-17T09:07:48;22.53;;;17.67;;
12792;SDS011;6460;42.684;23.260;2022-10-17T09:10:28;24.13;;;18.33;;
12792;SDS011;6460;42.684;23.260;2022-10-17T09:13:06;18.87;;;15.17;;
12792;SDS011;6460;42.684;23.260;2022-10-17T09:15:46;19.80;;;16.50;;
12792;SDS011;6460;42.684;23.260;2022-10-17T09:18:25;12.10;;;10.70;;
12792;SDS011;6460;42.684;23.260;2022-10-17T09:20:58;10.63;;;9.30;;
12792;SDS011;6460;42.684;23.260;2022-10-17T09:23:41;16.30;;;9.77;;
12792;SDS011;6460;42.684;23.260;2022-10-17T09:26:12;15.23;;;9.23;;
12792;SDS011;6460;42.684;23.260;2022-10-17T09:28:39;12.53;;;9.83;;
12792;SDS011;6460;42.684;23.260;2022-10-17T09:31:09;13.33;;;9.40;;
12792;SDS011;6460;42.684;23.260;2022-10-17T09:33:40;13.73;;;10.63;;
12792;SDS011;6460;42.684;23.260;2022-10-17T09:36:10;11.80;;;9.60;;
12792;SDS011;6460;42.684;23.260;2022-10-17T09:38:40;9.43;;;8.07;;
12792;SDS011;6460;42.684;23.260;2022-10-17T09:41:12;10.87;;;8.03;;
12792;SDS011;6460;42.684;23.260;2022-10-17T09:43:43;7.83;;;6.33;;
12792;SDS011;6460;42.684;23.260;2022-10-17T09:46:14;8.87;;;7.07;;
12792;SDS011;6460;42.684;23.260;2022-10-17T09:48:47;8.60;;;6.90;;
12792;SDS011;6460;42.684;23.260;2022-10-17T09:51:20;11.50;;;7.10;;
12792;SDS011;6460;42.684;23.260;2022-10-17T09:53:49;7.03;;;6.07;;
12792;SDS011;6460;42.684;23.260;2022-10-17T09:56:19;12.90;;;6.47;;
12792;SDS011;6460;42.684;23.260;2022-10-17T09:58:47;9.27;;;6.77;;
12792;SDS011;6460;42.684;23.260;2022-10-17T10:01:18;10.93;;;7.07;;
12792;SDS011;6460;42.684;23.260;2022-10-17T10:03:47;8.53;;;6.07;;
12792;SDS011;6460;42.684;23.260;2022-10-17T10:06:16;8.20;;;5.03;;
12792;SDS011;6460;42.684;23.260;2022-10-17T10:08:49;5.20;;;4.60;;
12792;SDS011;6460;42.684;23.260;2022-10-17T10:11:17;8.67;;;4.50;;
12792;SDS011;6460;42.684;23.260;2022-10-17T10:13:48;7.97;;;4.27;;
12792;SDS011;6460;42.684;23.260;2022-10-17T10:16:19;6.90;;;3.57;;
12792;SDS011;6460;42.684;23.260;2022-10-17T10:18:49;6.37;;;3.67;;
12792;SDS011;6460;42.684;23.260;2022-10-17T10:21:17;4.97;;;3.17;;
12792;SDS011;6460;42.684;23.260;2022-10-17T10:24:01;6.23;;;3.27;;
12792;SDS011;6460;42.684;23.260;2022-10-17T10:26:32;4.07;;;3.33;;
12792;SDS011;6460;42.684;23.260;2022-10-17T10:29:04;5.40;;;3.13;;
12792;SDS011;6460;42.684;23.260;2022-10-17T10:31:44;3.33;;;3.00;;
12792;SDS011;6460;42.684;23.260;2022-10-17T10:34:14;5.90;;;3.07;;
12792;SDS011;6460;42.684;23.260;2022-10-17T10:36:47;5.30;;;2.97;;
12792;SDS011;6460;42.684;23.260;2022-10-17T10:39:36;3.87;;;3.40;;
12792;SDS011;6460;42.684;23.260;2022-10-17T10:42:08;5.63;;;3.37;;
12792;SDS011;6460;42.684;23.260;2022-10-17T10:44:45;3.93;;;3.47;;
12792;SDS011;6460;42.684;23.260;2022-10-17T10:47:15;4.23;;;3.10;;
12792;SDS011;6460;42.684;23.260;2022-10-17T10:49:46;6.10;;;3.20;;
12792;SDS011;6460;42.684;23.260;2022-10-17T10:52:18;8.10;;;3.77;;
12792;SDS011;6460;42.684;23.260;2022-10-17T10:54:59;5.17;;;3.13;;
12792;SDS011;6460;42.684;23.260;2022-10-17T10:57:36;3.57;;;3.27;;
12792;SDS011;6460;42.684;23.260;2022-10-17T11:00:07;4.97;;;3.27;;
12792;SDS011;6460;42.684;23.260;2022-10-17T11:02:42;4.63;;;3.20;;
12792;SDS011;6460;42.684;23.260;2022-10-17T11:05:19;4.17;;;3.17;;
12792;SDS011;6460;42.684;23.260;2022-10-17T11:07:51;5.83;;;3.47;;
12792;SDS011;6460;42.684;23.260;2022-10-17T11:10:33;10.03;;;3.17;;
12792;SDS011;6460;42.684;23.260;2022-10-17T11:13:05;3.87;;;3.20;;
12792;SDS011;6460;42.684;23.260;2022-10-17T11:15:41;5.23;;;3.33;;
12792;SDS011;6460;42.684;23.260;2022-10-17T11:18:16;3.17;;;2.87;;
12792;SDS011;6460;42.684;23.260;2022-10-17T11:20:50;4.63;;;2.97;;
12792;SDS011;6460;42.684;23.260;2022-10-17T11:23:23;10.17;;;3.30;;
12792;SDS011;6460;42.684;23.260;2022-10-17T11:25:56;5.33;;;3.23;;
12792;SDS011;6460;42.684;23.260;2022-10-17T11:28:27;5.57;;;3.20;;
12792;SDS011;6460;42.684;23.260;2022-10-17T11:30:56;5.47;;;3.13;;
12792;SDS011;6460;42.684;23.260;2022-10-17T11:33:28;4.97;;;2.97;;
12792;SDS011;6460;42.684;23.260;2022-10-17T11:36:01;17.73;;;11.57;;
12792;SDS011;6460;42.684;23.260;2022-10-17T11:38:35;8.87;;;6.70;;
12792;SDS011;6460;42.684;23.260;2022-10-17T11:41:09;8.13;;;3.17;;
12792;SDS011;6460;42.684;23.260;2022-10-17T11:43:41;4.27;;;2.93;;
12792;SDS011;6460;42.684;23.260;2022-10-17T11:46:16;10.47;;;3.37;;
12792;SDS011;6460;42.684;23.260;2022-10-17T11:48:54;3.23;;;2.93;;
12792;SDS011;6460;42.684;23.260;2022-10-17T11:51:26;4.47;;;3.30;;
12792;SDS011;6460;42.684;23.260;2022-10-17T11:53:56;5.00;;;2.90;;
12792;SDS011;6460;42.684;23.260;2022-10-17T11:56:33;6.80;;;3.20;;
12792;SDS011;6460;42.684;23.260;2022-10-17T11:59:11;5.40;;;2.93;;
12792;SDS011;6460;42.684;23.260;2022-10-17T12:01:57;4.60;;;3.10;;
12792;SDS011;6460;42.684;23.260;2022-10-17T12:04:35;4.00;;;3.10;;
12792;SDS011;6460;42.684;23.260;2022-10-17T12:07:12;4.70;;;3.30;;
12792;SDS011;6460;42.684;23.260;2022-10-17T12:09:45;5.90;;;3.20;;
12792;SDS011;6460;42.684;23.260;2022-10-17T12:12:26;5.90;;;3.80;;
12792;SDS011;6460;42.684;23.260;2022-10-17T12:15:25;4.37;;;3.23;;
12792;SDS011;6460;42.684;23.260;2022-10-17T12:17:53;10.40;;;5.57;;
12792;SDS011;6460;42.684;23.260;2022-10-17T12:20:29;24.50;;;22.00;;
12792;SDS011;6460;42.684;23.260;2022-10-17T12:25:49;4.43;;;3.20;;
12792;SDS011;6460;42.684;23.260;2022-10-17T12:28:21;5.40;;;3.77;;
12792;SDS011;6460;42.684;23.260;2022-10-17T12:30:53;5.37;;;3.33;;
12792;SDS011;6460;42.684;23.260;2022-10-17T12:33:24;4.40;;;3.80;;
12792;SDS011;6460;42.684;23.260;2022-10-17T12:42:44;5.53;;;3.73;;
12792;SDS011;6460;42.684;23.260;2022-10-17T12:51:14;4.33;;;3.20;;
12792;SDS011;6460;42.684;23.260;2022-10-17T12:53:44;4.27;;;3.10;;
12792;SDS011;6460;42.684;23.260;2022-10-17T12:56:19;4.03;;;3.37;;
12792;SDS011;6460;42.684;23.260;2022-10-17T12:58:55;3.90;;;3.50;;
12792;SDS011;6460;42.684;23.260;2022-10-17T13:01:26;9.30;;;3.60;;
12792;SDS011;6460;42.684;23.260;2022-10-17T13:03:56;9.17;;;3.77;;
12792;SDS011;6460;42.684;23.260;2022-10-17T13:06:28;5.60;;;3.43;;
12792;SDS011;6460;42.684;23.260;2022-10-17T13:08:57;5.40;;;3.17;;
12792;SDS011;6460;42.684;23.260;2022-10-17T13:11:27;5.47;;;3.40;;
12792;SDS011;6460;42.684;23.260;2022-10-17T13:13:56;5.70;;;3.53;;
12792;SDS011;6460;42.684;23.260;2022-10-17T13:16:30;6.03;;;3.30;;
12792;SDS011;6460;42.684;23.260;2022-10-17T13:18:58;4.33;;;3.00;;
12792;SDS011;6460;42.684;23.260;2022-10-17T13:21:26;4.20;;;3.07;;
12792;SDS011;6460;42.684;23.260;2022-10-17T13:23:54;4.97;;;3.30;;
12792;SDS011;6460;42.684;23.260;2022-10-17T13:26:22;7.10;;;3.10;;
12792;SDS011;6460;42.684;23.260;2022-10-17T13:29:00;5.13;;;3.53;;
12792;SDS011;6460;42.684;23.260;2022-10-17T13:31:31;4.37;;;3.57;;
12792;SDS011;6460;42.684;23.260;2022-10-17T13:33:59;5.63;;;3.10;;
12792;SDS011;6460;42.684;23.260;2022-10-17T13:36:28;4.63;;;3.60;;
12792;SDS011;6460;42.684;23.260;2022-10-17T13:38:56;5.90;;;3.40;;
12792;SDS011;6460;42.684;23.260;2022-10-17T13:41:25;10.53;;;3.93;;
12792;SDS011;6460;42.684;23.260;2022-10-17T13:43:55;5.07;;;3.50;;
12792;SDS011;6460;42.684;23.260;2022-10-17T13:46:27;4.43;;;3.77;;
12792;SDS011;6460;42.684;23.260;2022-10-17T13:48:57;6.30;;;3.03;;
12792;SDS011;6460;42.684;23.260;2022-10-17T13:51:34;4.20;;;3.10;;
12792;SDS011;6460;42.684;23.260;2022-10-17T13:54:02;6.90;;;3.30;;
12792;SDS011;6460;42.684;23.260;2022-10-17T13:56:43;5.67;;;3.57;;
12792;SDS011;6460;42.684;23.260;2022-10-17T13:59:16;4.20;;;3.23;;
12792;SDS011;6460;42.684;23.260;2022-10-17T14:01:50;5.40;;;2.93;;
12792;SDS011;6460;42.684;23.260;2022-10-17T14:04:19;6.27;;;3.13;;
12792;SDS011;6460;42.684;23.260;2022-10-17T14:06:46;4.67;;;3.17;;
12792;SDS011;6460;42.684;23.260;2022-10-17T14:09:16;5.07;;;3.07;;
12792;SDS011;6460;42.684;23.260;2022-10-17T14:11:54;4.17;;;3.40;;
12792;SDS011;6460;42.684;23.260;2022-10-17T14:14:25;3.70;;;3.37;;
12792;SDS011;6460;42.684;23.260;2022-10-17T14:16:54;4.27;;;3.37;;
12792;SDS011;6460;42.684;23.260;2022-10-17T14:19:23;6.20;;;3.03;;
12792;SDS011;6460;42.684;23.260;2022-10-17T14:21:52;4.07;;;3.57;;
12792;SDS011;6460;42.684;23.260;2022-10-17T14:24:27;5.77;;;4.20;;
12792;SDS011;6460;42.684;23.260;2022-10-17T14:26:56;4.27;;;3.90;;
12792;SDS011;6460;42.684;23.260;2022-10-17T14:29:25;6.90;;;4.10;;
12792;SDS011;6460;42.684;23.260;2022-10-17T14:31:59;7.57;;;4.23;;
12792;SDS011;6460;42.684;23.260;2022-10-17T14:34:31;8.33;;;4.60;;
12792;SDS011;6460;42.684;23.260;2022-10-17T14:37:01;6.40;;;4.70;;
12792;SDS011;6460;42.684;23.260;2022-10-17T14:39:35;4.70;;;4.23;;
12792;SDS011;6460;42.684;23.260;2022-10-17T14:42:02;7.33;;;4.17;;
12792;SDS011;6460;42.684;23.260;2022-10-17T14:44:30;7.77;;;4.27;;
12792;SDS011;6460;42.684;23.260;2022-10-17T14:47:01;7.57;;;4.33;;
12792;SDS011;6460;42.684;23.260;2022-10-17T14:49:34;5.07;;;3.80;;
12792;SDS011;6460;42.684;23.260;2022-10-17T14:52:09;5.07;;;3.60;;
12792;SDS011;6460;42.684;23.260;2022-10-17T14:54:56;10.47;;;4.07;;
12792;SDS011;6460;42.684;23.260;2022-10-17T14:57:26;11.93;;;4.20;;
12792;SDS011;6460;42.684;23.260;2022-10-17T15:00:07;29.63;;;5.20;;
12792;SDS011;6460;42.684;23.260;2022-10-17T15:02:40;14.97;;;4.40;;
12792;SDS011;6460;42.684;23.260;2022-10-17T15:05:07;7.13;;;4.07;;
12792;SDS011;6460;42.684;23.260;2022-10-17T15:07:34;6.33;;;4.37;;
12792;SDS011;6460;42.684;23.260;2022-10-17T15:10:01;8.30;;;4.47;;
12792;SDS011;6460;42.684;23.260;2022-10-17T15:12:29;12.90;;;4.43;;
12792;SDS011;6460;42.684;23.260;2022-10-17T15:14:56;9.73;;;4.10;;
12792;SDS011;6460;42.684;23.260;2022-10-17T15:17:25;6.70;;;3.90;;
12792;SDS011;6460;42.684;23.260;2022-10-17T15:19:55;10.77;;;4.10;;
12792;SDS011;6460;42.684;23.260;2022-10-17T15:22:23;10.70;;;4.30;;
12792;SDS011;6460;42.684;23.260;2022-10-17T15:24:50;9.17;;;4.30;;
12792;SDS011;6460;42.684;23.260;2022-10-17T15:27:17;13.47;;;4.90;;
12792;SDS011;6460;42.684;23.260;2022-10-17T15:29:46;10.03;;;4.23;;
12792;SDS011;6460;42.684;23.260;2022-10-17T15:32:14;20.00;;;13.97;;
12792;SDS011;6460;42.684;23.260;2022-10-17T15:34:41;28.87;;;25.83;;
12792;SDS011;6460;42.684;23.260;2022-10-17T15:37:14;10.83;;;5.73;;
12792;SDS011;6460;42.684;23.260;2022-10-17T15:39:46;9.70;;;5.03;;
12792;SDS011;6460;42.684;23.260;2022-10-17T15:42:17;12.63;;;5.00;;
12792;SDS011;6460;42.684;23.260;2022-10-17T15:44:45;7.47;;;5.27;;
12792;SDS011;6460;42.684;23.260;2022-10-17T15:47:17;7.70;;;5.10;;
12792;SDS011;6460;42.684;23.260;2022-10-17T15:49:49;8.33;;;4.90;;
12792;SDS011;6460;42.684;23.260;2022-10-17T15:52:19;11.43;;;5.70;;
12792;SDS011;6460;42.684;23.260;2022-10-17T15:54:47;11.87;;;4.77;;
12792;SDS011;6460;42.684;23.260;2022-10-17T15:57:15;13.10;;;5.47;;
12792;SDS011;6460;42.684;23.260;2022-10-17T15:59:46;10.60;;;5.77;;
12792;SDS011;6460;42.684;23.260;2022-10-17T16:02:15;12.80;;;7.63;;
12792;SDS011;6460;42.684;23.260;2022-10-17T16:04:43;9.97;;;5.80;;
12792;SDS011;6460;42.684;23.260;2022-10-17T16:07:12;10.77;;;6.57;;
12792;SDS011;6460;42.684;23.260;2022-10-17T16:09:40;10.97;;;7.00;;
12792;SDS011;6460;42.684;23.260;2022-10-17T16:12:10;9.63;;;7.13;;
12792;SDS011;6460;42.684;23.260;2022-10-17T16:14:38;14.90;;;8.10;;
12792;SDS011;6460;42.684;23.260;2022-10-17T16:17:07;7.57;;;5.57;;